Time;durP1;ratioP1;P1;durP2;ratioP2;P2;SDS_P1;SDS_P2;PMS_P1;PMS_P2;Temp;Humidity;BMP_temperature;BMP_pressure;BME280_temperature;BME280_humidity;BME280_pressure;Samples;Min_cycle;Max_cycle;Signal;HPM_P1;HPM_P2
2023/06/25 00:01:34;;;;;;;3.38;2.33;;;15.60;99.90;15.60;101174.00;;;;4977490;28;110867;-65
2023/06/25 00:04:00;;;;;;;2.95;2.35;;;15.60;99.90;15.50;101168.00;;;;4977975;28;87731;-65
2023/06/25 00:06:25;;;;;;;3.17;2.75;;;15.50;99.90;15.50;101176.00;;;;4975183;28;117187;-65
2023/06/25 00:08:51;;;;;;;3.88;2.80;;;15.50;99.90;15.50;101173.00;;;;4966236;28;115634;-65
2023/06/25 00:11:17;;;;;;;4.40;3.38;;;15.50;99.90;15.50;101180.00;;;;4975504;28;88080;-65
2023/06/25 00:13:42;;;;;;;3.35;2.63;;;15.40;99.90;15.50;101174.00;;;;4964845;28;109900;-65
2023/06/25 00:16:08;;;;;;;5.60;3.20;;;15.40;99.90;15.40;101174.00;;;;4968653;28;101137;-65
2023/06/25 00:18:34;;;;;;;3.03;2.72;;;15.40;99.90;15.50;101181.00;;;;4970153;28;88710;-65
2023/06/25 00:21:01;;;;;;;2.35;1.98;;;15.40;99.90;15.40;101164.00;;;;4970768;28;108763;-65
2023/06/25 00:23:27;;;;;;;4.80;3.55;;;15.40;99.90;15.40;101169.00;;;;4966922;28;87962;-65
2023/06/25 00:25:53;;;;;;;3.63;2.90;;;15.40;99.90;15.40;101177.00;;;;4968485;28;116342;-65
2023/06/25 00:28:18;;;;;;;3.45;2.97;;;15.40;99.90;15.40;101170.00;;;;4971261;28;87782;-65
2023/06/25 00:30:44;;;;;;;4.82;2.67;;;15.30;99.90;15.30;101172.00;;;;4976453;28;110498;-65
2023/06/25 00:33:10;;;;;;;4.60;2.92;;;15.30;99.90;15.30;101173.00;;;;4973705;28;107861;-65
2023/06/25 00:35:50;;;;;;;3.92;3.25;;;15.30;99.90;15.20;101180.00;;;;4975116;28;88718;-65
2023/06/25 00:38:19;;;;;;;3.97;3.40;;;15.20;99.90;15.20;101170.00;;;;4969975;28;95790;-65
2023/06/25 00:40:45;;;;;;;4.75;3.38;;;15.20;99.90;15.20;101171.00;;;;4975518;28;91600;-65
2023/06/25 00:43:15;;;;;;;3.70;3.17;;;15.10;99.90;15.10;101173.00;;;;4957921;28;87554;-65
2023/06/25 00:45:42;;;;;;;3.38;2.97;;;15.10;99.90;15.10;101175.00;;;;4966875;28;88035;-65
2023/06/25 00:48:08;;;;;;;3.25;2.58;;;15.10;99.90;15.00;101173.00;;;;4977507;28;103018;-66
2023/06/25 00:50:34;;;;;;;3.40;3.05;;;15.00;99.90;15.00;101167.00;;;;4962959;28;109745;-66
2023/06/25 00:53:02;;;;;;;3.28;2.97;;;15.00;99.90;15.00;101176.00;;;;4974205;28;108627;-65
2023/06/25 00:55:28;;;;;;;6.15;3.13;;;14.90;99.90;15.00;101169.00;;;;4950612;28;88513;-65
2023/06/25 00:57:55;;;;;;;3.42;3.05;;;14.90;99.90;14.90;101163.00;;;;4970209;28;107178;-65
2023/06/25 01:00:24;;;;;;;3.70;2.60;;;14.90;99.90;14.90;101162.00;;;;4953085;28;87870;-66
2023/06/25 01:03:26;;;;;;;3.88;3.47;;;14.90;99.90;14.90;101162.00;;;;4954088;28;88648;-65
2023/06/25 01:06:09;;;;;;;2.65;2.08;;;14.90;99.90;14.80;101161.00;;;;4964788;28;88826;-66
2023/06/25 01:08:38;;;;;;;3.10;2.80;;;14.80;99.90;14.80;101166.00;;;;4954175;28;109541;-65
2023/06/25 01:11:05;;;;;;;3.05;2.75;;;14.70;99.90;14.70;101166.00;;;;4972052;28;99419;-65
2023/06/25 01:13:31;;;;;;;10.02;3.45;;;14.70;99.90;14.70;101164.00;;;;4976496;28;88283;-65
2023/06/25 01:15:57;;;;;;;4.95;3.05;;;14.70;99.90;14.70;101168.00;;;;4971949;28;106812;-65
2023/06/25 01:18:23;;;;;;;3.45;3.05;;;14.60;99.90;14.60;101167.00;;;;4966990;28;117780;-66
2023/06/25 01:20:56;;;;;;;4.85;3.17;;;14.60;99.90;14.60;101172.00;;;;4973946;28;87630;-66
2023/06/25 01:23:21;;;;;;;4.30;2.67;;;14.60;99.90;14.60;101168.00;;;;4958985;28;88078;-65
2023/06/25 01:25:48;;;;;;;2.22;1.83;;;14.50;99.90;14.60;101173.00;;;;4973681;28;117372;-65
2023/06/25 01:28:19;;;;;;;5.43;3.33;;;14.50;99.90;14.50;101167.00;;;;4956380;28;88996;-65
2023/06/25 01:30:52;;;;;;;15.57;3.00;;;14.50;99.90;14.50;101170.00;;;;4971551;28;87669;-65
2023/06/25 01:33:20;;;;;;;6.22;3.80;;;14.50;99.90;14.50;101163.00;;;;4972872;28;88155;-66
2023/06/25 01:35:46;;;;;;;3.80;3.30;;;14.50;99.90;14.50;101163.00;;;;4975107;28;88314;-65
2023/06/25 01:38:12;;;;;;;4.07;3.35;;;14.50;99.90;14.50;101160.00;;;;4971042;28;89612;-65
2023/06/25 01:40:38;;;;;;;5.32;3.58;;;14.40;99.90;14.40;101153.00;;;;4972035;28;87940;-66
2023/06/25 01:43:04;;;;;;;4.75;3.80;;;14.40;99.90;14.40;101153.00;;;;4971841;28;87838;-66
2023/06/25 01:45:29;;;;;;;6.47;3.70;;;14.30;99.90;14.40;101153.00;;;;4971919;28;107965;-65
2023/06/25 01:47:55;;;;;;;3.95;3.17;;;14.30;99.90;14.30;101142.00;;;;4972118;28;116722;-65
2023/06/25 01:50:21;;;;;;;4.07;3.20;;;14.30;99.90;14.30;101146.00;;;;4970420;28;110011;-66
2023/06/25 01:52:46;;;;;;;4.43;2.90;;;14.30;99.90;14.30;101142.00;;;;4971592;28;108326;-65
2023/06/25 01:55:12;;;;;;;4.57;2.63;;;14.30;99.90;14.30;101144.00;;;;4969728;28;118336;-65
2023/06/25 01:57:38;;;;;;;5.07;3.47;;;14.20;99.90;14.20;101146.00;;;;4969688;28;87951;-65
2023/06/25 02:00:07;;;;;;;3.90;3.35;;;14.20;99.90;14.20;101147.00;;;;4973369;28;110408;-65
2023/06/25 02:02:32;;;;;;;3.75;3.28;;;14.20;99.90;14.20;101140.00;;;;4969746;28;87872;-65
2023/06/25 02:04:58;;;;;;;4.70;3.13;;;14.20;99.90;14.20;101142.00;;;;4969923;28;117774;-65
2023/06/25 02:07:24;;;;;;;3.67;2.83;;;14.10;99.90;14.20;101143.00;;;;4969390;28;117271;-65
2023/06/25 02:09:49;;;;;;;5.67;3.63;;;14.20;99.90;14.10;101139.00;;;;4971209;28;108158;-65
2023/06/25 02:12:15;;;;;;;5.68;4.40;;;14.10;99.90;14.10;101133.00;;;;4970815;28;87997;-65
2023/06/25 02:14:41;;;;;;;6.22;3.70;;;14.10;99.90;14.10;101131.00;;;;4967145;28;116734;-66
2023/06/25 02:17:06;;;;;;;5.88;3.65;;;14.00;99.90;14.10;101134.00;;;;4970035;28;88596;-65
2023/06/25 02:19:32;;;;;;;3.67;3.27;;;14.00;99.90;14.00;101126.00;;;;4970086;28;109693;-65
2023/06/25 02:21:58;;;;;;;4.68;3.72;;;14.10;99.90;14.00;101124.00;;;;4970438;28;87687;-65
2023/06/25 02:24:23;;;;;;;4.87;2.43;;;14.00;99.90;14.00;101124.00;;;;4972446;28;107720;-65
2023/06/25 02:26:49;;;;;;;3.77;3.47;;;13.90;99.90;14.00;101121.00;;;;4971641;28;101469;-65
2023/06/25 02:29:15;;;;;;;5.93;3.40;;;13.90;99.90;14.00;101122.00;;;;4970000;28;110270;-65
2023/06/25 02:31:40;;;;;;;4.60;3.03;;;13.90;99.90;13.90;101125.00;;;;4975372;28;109120;-65
2023/06/25 02:34:06;;;;;;;3.87;3.27;;;14.90;99.90;13.90;101126.00;;;;4974461;28;115339;-65
2023/06/25 02:36:32;;;;;;;3.50;2.70;;;13.90;99.90;13.90;101118.00;;;;4980577;28;88983;-66
2023/06/25 02:38:57;;;;;;;4.73;3.67;;;13.90;99.90;13.90;101118.00;;;;4975991;28;110265;-65
2023/06/25 02:41:23;;;;;;;3.35;2.85;;;13.80;99.90;13.90;101116.00;;;;4971693;28;108764;-65
2023/06/25 02:43:49;;;;;;;4.60;3.63;;;13.80;99.90;13.90;101111.00;;;;4970343;28;116067;-65
2023/06/25 02:46:14;;;;;;;5.00;3.07;;;13.80;99.90;13.90;101114.00;;;;4967860;28;116509;-65
2023/06/25 02:48:42;;;;;;;5.23;4.00;;;13.80;99.90;13.80;101108.00;;;;4966993;28;109924;-66
2023/06/25 02:51:09;;;;;;;4.07;3.00;;;13.80;99.90;13.80;101120.00;;;;4972236;28;87867;-65
2023/06/25 02:53:36;;;;;;;3.50;2.90;;;13.80;99.90;13.80;101110.00;;;;4963802;28;89192;-65
2023/06/25 02:56:01;;;;;;;3.90;2.87;;;13.80;99.90;13.80;101118.00;;;;4970146;28;93453;-65
2023/06/25 02:58:27;;;;;;;5.57;3.37;;;13.80;99.90;13.80;101112.00;;;;4972489;28;87017;-65
2023/06/25 03:00:53;;;;;;;5.97;3.37;;;13.80;99.90;13.80;101111.00;;;;4966140;28;106963;-65
2023/06/25 03:03:18;;;;;;;3.27;2.70;;;13.80;99.90;13.80;101105.00;;;;4969740;28;88720;-66
2023/06/25 03:05:44;;;;;;;3.03;2.57;;;13.80;99.90;13.80;101113.00;;;;4966670;28;116022;-66
2023/06/25 03:08:10;;;;;;;6.10;4.33;;;13.80;99.90;13.80;101114.00;;;;4968431;28;109294;-66
2023/06/25 03:10:37;;;;;;;4.43;3.53;;;13.80;99.90;13.80;101116.00;;;;4966953;28;104888;-65
2023/06/25 03:13:04;;;;;;;3.70;3.17;;;13.80;99.90;13.80;101111.00;;;;4958205;28;88837;-65
2023/06/25 03:15:30;;;;;;;4.37;2.60;;;13.80;99.90;13.80;101116.00;;;;4953285;28;88410;-65
2023/06/25 03:17:56;;;;;;;4.77;3.33;;;13.80;99.90;13.80;101110.00;;;;4967129;28;111075;-64
2023/06/25 03:20:21;;;;;;;4.30;2.67;;;13.80;99.90;13.80;101106.00;;;;4969235;28;97231;-64
2023/06/25 03:22:47;;;;;;;4.67;3.13;;;13.80;99.90;13.80;101100.00;;;;4966834;28;115454;-64
2023/06/25 03:25:13;;;;;;;3.13;2.83;;;13.80;99.90;13.80;101102.00;;;;4967930;28;116679;-64
2023/06/25 03:27:39;;;;;;;4.17;3.63;;;13.80;99.90;13.80;101099.00;;;;4972551;28;109517;-65
2023/06/25 03:30:06;;;;;;;5.33;3.17;;;13.80;99.90;13.80;101102.00;;;;4969683;28;88805;-64
2023/06/25 03:32:32;;;;;;;4.23;3.17;;;13.80;99.90;13.80;101089.00;;;;4965957;28;108639;-65
2023/06/25 03:34:57;;;;;;;4.03;3.33;;;13.80;99.90;13.80;101093.00;;;;4969486;28;108268;-65
2023/06/25 03:37:23;;;;;;;8.70;4.00;;;13.80;99.90;13.80;101104.00;;;;4972098;28;105987;-65
2023/06/25 03:39:49;;;;;;;3.47;2.93;;;13.70;99.90;13.80;101092.00;;;;4951267;28;109116;-64
2023/06/25 03:42:33;;;;;;;3.20;2.97;;;13.80;99.90;13.80;101099.00;;;;4972905;28;88507;-67
2023/06/25 03:44:59;;;;;;;5.50;3.33;;;13.80;99.90;13.90;101087.00;;;;4967036;28;117494;-65
2023/06/25 03:47:24;;;;;;;3.27;2.83;;;13.80;99.90;13.90;101100.00;;;;4969085;28;109652;-65
2023/06/25 03:49:50;;;;;;;5.07;3.27;;;13.90;99.90;14.00;101095.00;;;;4967050;28;93384;-64
2023/06/25 03:52:16;;;;;;;3.70;2.90;;;13.90;99.90;14.00;101095.00;;;;4970425;28;92420;-65
2023/06/25 03:54:42;;;;;;;2.90;2.60;;;14.00;99.90;14.10;101100.00;;;;4970823;28;88770;-65
2023/06/25 03:57:07;;;;;;;2.83;2.53;;;14.10;99.90;14.20;101082.00;;;;4973725;28;88035;-65
2023/06/25 03:59:33;;;;;;;3.83;2.87;;;14.10;99.90;14.30;101083.00;;;;4971854;28;109990;-64
2023/06/25 04:01:59;;;;;;;3.53;2.67;;;14.20;99.90;14.40;101083.00;;;;4971725;28;116178;-65
2023/06/25 04:04:24;;;;;;;5.30;3.50;;;14.30;99.90;14.40;101081.00;;;;4973740;28;88328;-65
2023/06/25 04:06:50;;;;;;;5.17;2.80;;;14.30;99.90;14.50;101086.00;;;;4964645;28;111394;-64
2023/06/25 04:09:16;;;;;;;4.78;3.38;;;14.40;99.90;14.60;101076.00;;;;4954891;28;107936;-64
2023/06/25 04:11:41;;;;;;;6.43;3.27;;;14.50;99.90;14.70;101086.00;;;;4950633;28;87934;-65
2023/06/25 04:14:07;;;;;;;5.93;3.03;;;14.60;99.90;14.70;101081.00;;;;4952833;28;117172;-65
2023/06/25 04:16:33;;;;;;;4.38;3.03;;;14.60;99.90;14.80;101084.00;;;;4953266;28;109398;-65
2023/06/25 04:18:58;;;;;;;3.47;3.17;;;14.70;99.90;14.90;101079.00;;;;4956079;28;90681;-65
2023/06/25 04:21:24;;;;;;;4.32;3.92;;;14.80;99.90;15.00;101082.00;;;;4951317;28;117233;-65
2023/06/25 04:23:50;;;;;;;3.75;2.80;;;14.90;99.90;15.00;101075.00;;;;4957738;28;117700;-65
2023/06/25 04:26:15;;;;;;;7.05;3.67;;;14.90;99.90;15.10;101076.00;;;;4953070;28;87674;-65
2023/06/25 04:28:41;;;;;;;3.17;2.65;;;15.00;99.90;15.10;101074.00;;;;4952457;28;106533;-65
2023/06/25 04:31:07;;;;;;;4.85;3.88;;;15.00;99.90;15.20;101081.00;;;;4951270;28;117925;-65
2023/06/25 04:33:38;;;;;;;6.03;4.32;;;15.10;99.90;15.30;101079.00;;;;4952570;28;88683;-65
2023/06/25 04:36:04;;;;;;;4.43;3.88;;;15.20;99.90;15.40;101077.00;;;;4951358;28;87260;-65
2023/06/25 04:38:29;;;;;;;4.50;2.90;;;15.30;99.90;15.50;101081.00;;;;4954606;28;87671;-65
2023/06/25 04:41:01;;;;;;;3.72;2.97;;;15.40;99.90;15.60;101079.00;;;;4953574;28;105145;-65
2023/06/25 04:43:27;;;;;;;3.20;2.83;;;15.50;99.90;15.70;101075.00;;;;4953780;28;88741;-65
2023/06/25 04:45:52;;;;;;;4.82;3.55;;;15.60;99.90;15.90;101082.00;;;;4953566;28;111097;-65
2023/06/25 04:48:18;;;;;;;4.90;2.92;;;15.70;99.90;16.00;101084.00;;;;4955477;28;108721;-65
2023/06/25 04:50:44;;;;;;;4.60;3.53;;;15.90;99.90;16.20;101093.00;;;;4952300;28;89319;-65
2023/06/25 04:53:09;;;;;;;5.32;3.65;;;16.00;99.90;16.30;101088.00;;;;4953214;28;89968;-65
2023/06/25 04:55:35;;;;;;;2.80;2.47;;;16.10;99.90;16.40;101090.00;;;;4952872;28;111169;-65
2023/06/25 04:58:01;;;;;;;4.75;3.28;;;16.30;99.90;16.60;101092.00;;;;4951296;28;90500;-66
2023/06/25 05:00:26;;;;;;;5.93;3.78;;;16.40;99.90;16.70;101083.00;;;;4949522;28;112305;-65
2023/06/25 05:02:52;;;;;;;3.13;2.55;;;16.60;99.90;16.80;101081.00;;;;4951841;28;117249;-65
2023/06/25 05:05:18;;;;;;;4.43;2.90;;;16.70;99.90;16.90;101091.00;;;;4951608;28;109802;-65
2023/06/25 05:07:43;;;;;;;5.10;3.42;;;16.80;99.90;17.00;101085.00;;;;4966382;27;91461;-65
2023/06/25 05:10:12;;;;;;;5.82;2.92;;;17.00;99.90;17.10;101092.00;;;;4990152;27;89077;-65
2023/06/25 05:12:38;;;;;;;6.72;3.30;;;17.00;99.90;17.30;101091.00;;;;4971625;27;95241;-65
2023/06/25 05:15:04;;;;;;;4.68;3.65;;;17.10;99.90;17.40;101099.00;;;;4987831;28;110223;-65
2023/06/25 05:17:30;;;;;;;7.35;4.40;;;17.30;99.90;17.50;101092.00;;;;4987688;27;88091;-66
2023/06/25 05:19:56;;;;;;;3.28;2.45;;;17.40;99.90;17.70;101094.00;;;;4989317;27;117790;-65
2023/06/25 05:22:21;;;;;;;5.10;2.83;;;17.50;99.90;17.80;101100.00;;;;4985120;27;116363;-65
2023/06/25 05:24:47;;;;;;;4.18;3.03;;;17.60;99.90;17.90;101094.00;;;;4990190;27;111574;-65
2023/06/25 05:27:13;;;;;;;3.50;2.78;;;17.70;99.90;18.10;101101.00;;;;4991194;27;87800;-65
2023/06/25 05:29:38;;;;;;;3.28;2.65;;;17.90;99.90;18.20;101105.00;;;;4988862;27;87988;-65
2023/06/25 05:32:05;;;;;;;6.85;3.33;;;18.00;99.90;18.30;101101.00;;;;4984378;27;116871;-64
2023/06/25 05:34:31;;;;;;;3.42;2.85;;;18.10;99.90;18.40;101106.00;;;;4974090;28;91069;-65
2023/06/25 05:36:56;;;;;;;3.78;3.00;;;18.30;99.90;18.50;101096.00;;;;4991971;27;110010;-65
2023/06/25 05:39:28;;;;;;;5.45;3.05;;;18.40;99.90;18.60;101092.00;;;;4988634;27;87912;-65
2023/06/25 05:41:56;;;;;;;6.63;4.13;;;18.50;99.90;18.70;101103.00;;;;4988609;27;88793;-65
2023/06/25 05:44:22;;;;;;;6.18;3.65;;;18.60;99.90;18.80;101088.00;;;;4989676;27;88231;-65
2023/06/25 05:46:47;;;;;;;3.47;2.60;;;18.70;99.90;18.90;101085.00;;;;4988071;27;108732;-65
2023/06/25 05:49:13;;;;;;;3.42;3.10;;;18.70;99.90;19.00;101080.00;;;;4986211;28;115318;-65
2023/06/25 05:51:39;;;;;;;3.78;2.90;;;18.80;99.90;19.10;101074.00;;;;4989678;27;117577;-65
2023/06/25 05:54:04;;;;;;;3.58;3.28;;;18.90;99.90;19.10;101075.00;;;;4985321;27;109877;-66
2023/06/25 05:56:30;;;;;;;5.20;2.70;;;18.90;99.90;19.20;101080.00;;;;4962154;28;103192;-64
2023/06/25 05:58:56;;;;;;;3.88;2.47;;;19.00;99.90;19.30;101082.00;;;;4987882;28;96297;-65
2023/06/25 06:01:22;;;;;;;4.35;2.60;;;19.10;99.90;19.40;101065.00;;;;4989929;27;118655;-65
2023/06/25 06:03:47;;;;;;;5.00;3.65;;;19.20;99.90;19.60;101082.00;;;;4984498;27;88298;-65
2023/06/25 06:06:13;;;;;;;4.93;3.55;;;19.30;99.90;19.60;101075.00;;;;4990443;27;88026;-65
2023/06/25 06:08:39;;;;;;;2.75;2.55;;;19.40;99.90;19.70;101080.00;;;;4991019;28;94718;-66
2023/06/25 06:11:04;;;;;;;4.63;3.10;;;19.50;99.90;19.80;101081.00;;;;4986588;27;87905;-65
2023/06/25 06:13:30;;;;;;;2.95;2.40;;;19.60;99.90;19.90;101081.00;;;;4990581;27;90864;-65
2023/06/25 06:15:56;;;;;;;4.40;3.42;;;19.70;99.90;20.00;101090.00;;;;4988702;27;87773;-65
2023/06/25 06:18:21;;;;;;;2.40;2.20;;;19.80;99.90;20.00;101081.00;;;;4985313;27;118736;-65
2023/06/25 06:20:47;;;;;;;5.05;2.92;;;19.80;99.90;20.10;101078.00;;;;4990090;27;115011;-65
2023/06/25 06:23:13;;;;;;;5.55;3.80;;;19.90;99.90;20.30;101082.00;;;;4988540;27;109728;-65
2023/06/25 06:25:38;;;;;;;4.65;2.60;;;20.00;99.90;20.40;101084.00;;;;4989849;27;108831;-65
2023/06/25 06:28:04;;;;;;;4.18;2.58;;;20.20;99.90;20.60;101086.00;;;;4987738;28;116279;-65
2023/06/25 06:30:30;;;;;;;4.38;2.38;;;20.30;99.90;20.80;101085.00;;;;4989154;28;88559;-66
2023/06/25 06:32:55;;;;;;;6.10;3.05;;;20.50;99.90;20.90;101071.00;;;;4986343;27;110242;-66
2023/06/25 06:35:21;;;;;;;7.13;3.10;;;20.70;99.90;21.10;101087.00;;;;4986867;27;107440;-65
2023/06/25 06:37:47;;;;;;;11.40;3.17;;;20.80;99.90;21.20;101093.00;;;;4989546;27;88437;-65
2023/06/25 06:40:18;;;;;;;3.97;2.88;;;21.00;99.90;21.40;101086.00;;;;4986607;28;115083;-65
2023/06/25 06:42:44;;;;;;;4.40;2.60;;;21.10;99.90;21.50;101086.00;;;;4989088;27;110435;-66
2023/06/25 06:45:10;;;;;;;3.25;2.88;;;21.40;99.90;21.70;101082.00;;;;4965748;28;108432;-65
2023/06/25 06:47:36;;;;;;;6.93;2.90;;;21.40;99.90;21.80;101087.00;;;;4989100;27;97597;-65
2023/06/25 06:50:02;;;;;;;2.95;2.33;;;21.50;99.90;21.90;101088.00;;;;4986177;27;87872;-65
2023/06/25 06:52:28;;;;;;;2.58;2.30;;;21.60;99.90;22.00;101089.00;;;;4988085;28;92367;-66
2023/06/25 06:54:53;;;;;;;3.83;2.95;;;21.70;99.90;22.10;101104.00;;;;4984521;27;96002;-66
2023/06/25 06:57:20;;;;;;;3.95;3.47;;;21.90;99.90;22.30;101087.00;;;;4990437;27;88620;-66
2023/06/25 06:59:45;;;;;;;7.57;2.88;;;22.00;99.90;22.40;101095.00;;;;4990257;27;88702;-67
2023/06/25 07:02:11;;;;;;;4.10;2.22;;;22.20;99.90;22.50;101101.00;;;;4986491;27;111344;-67
2023/06/25 07:04:38;;;;;;;4.38;3.03;;;22.30;99.90;22.60;101100.00;;;;4978433;27;88626;-67
2023/06/25 07:07:05;;;;;;;3.38;2.63;;;22.40;99.90;22.70;101100.00;;;;4987117;27;88822;-68
2023/06/25 07:09:30;;;;;;;3.08;2.53;;;22.50;99.90;22.80;101090.00;;;;4983859;27;107560;-66
2023/06/25 07:11:56;;;;;;;2.70;2.30;;;22.60;99.90;22.90;101092.00;;;;4988659;27;111031;-68
2023/06/25 07:14:22;;;;;;;2.33;1.83;;;22.70;99.90;23.10;101089.00;;;;4970960;28;107410;-67
2023/06/25 07:16:47;;;;;;;3.10;2.80;;;22.80;99.90;23.20;101090.00;;;;4988472;27;117564;-67
2023/06/25 07:19:13;;;;;;;3.38;2.10;;;22.90;99.90;23.30;101086.00;;;;4979936;27;117811;-67
2023/06/25 07:21:39;;;;;;;4.63;3.13;;;23.00;99.90;23.40;101087.00;;;;4992063;27;101074;-67
2023/06/25 07:24:05;;;;;;;3.05;2.40;;;23.10;99.90;23.60;101092.00;;;;4973626;28;88402;-67
2023/06/25 07:26:31;;;;;;;5.78;2.83;;;23.20;99.90;23.80;101099.00;;;;4987063;27;107396;-67
2023/06/25 07:28:57;;;;;;;3.75;2.63;;;23.40;99.90;24.00;101091.00;;;;4989199;27;95764;-67
2023/06/25 07:31:22;;;;;;;4.40;2.70;;;23.60;99.90;24.10;101088.00;;;;4982495;27;87948;-67
2023/06/25 07:33:48;;;;;;;3.05;2.47;;;23.80;99.90;24.30;101089.00;;;;4989566;27;110253;-68
2023/06/25 07:36:14;;;;;;;3.95;2.67;;;24.00;99.90;24.50;101088.00;;;;4988819;27;119721;-67
2023/06/25 07:38:40;;;;;;;2.65;1.92;;;24.10;99.80;24.70;101093.00;;;;4983724;28;88441;-67
2023/06/25 07:41:06;;;;;;;7.38;2.70;;;24.40;99.20;24.90;101099.00;;;;4987475;27;100605;-67
2023/06/25 07:43:38;;;;;;;5.65;3.13;;;24.50;98.80;25.10;101094.00;;;;5001414;27;108817;-67
2023/06/25 07:46:03;;;;;;;2.80;2.40;;;24.70;97.90;25.20;101091.00;;;;4989462;28;117611;-67
2023/06/25 07:48:29;;;;;;;5.15;2.53;;;24.80;97.50;25.30;101087.00;;;;4993095;28;88392;-67
2023/06/25 07:50:55;;;;;;;5.18;2.45;;;25.00;97.00;25.40;101092.00;;;;4986169;27;110231;-67
2023/06/25 07:53:20;;;;;;;4.43;2.28;;;25.10;96.40;25.60;101099.00;;;;4996090;27;87838;-67
2023/06/25 07:55:49;;;;;;;3.17;2.20;;;25.20;96.10;25.80;101099.00;;;;4992801;27;117199;-67
2023/06/25 07:58:14;;;;;;;3.67;2.42;;;25.40;95.60;26.00;101100.00;;;;4991308;27;88970;-67
2023/06/25 08:00:40;;;;;;;3.05;2.03;;;25.60;95.20;26.20;101096.00;;;;4992004;28;111502;-67
2023/06/25 08:03:06;;;;;;;3.10;2.40;;;25.80;95.00;26.40;101090.00;;;;4987984;27;109203;-67
2023/06/25 08:05:31;;;;;;;2.05;1.85;;;26.00;94.70;26.50;101095.00;;;;4986385;27;116197;-67
2023/06/25 08:07:57;;;;;;;2.45;2.25;;;26.10;94.40;26.70;101102.00;;;;4990289;27;118049;-67
2023/06/25 08:10:24;;;;;;;2.47;1.50;;;26.30;94.00;26.80;101101.00;;;;4990427;27;87985;-68
2023/06/25 08:12:51;;;;;;;4.57;2.80;;;26.40;93.50;26.90;101104.00;;;;4992306;27;88056;-68
2023/06/25 08:15:17;;;;;;;2.85;2.45;;;26.60;93.20;27.00;101100.00;;;;4989194;27;88393;-68
2023/06/25 08:17:43;;;;;;;2.40;1.85;;;26.60;92.20;27.00;101099.00;;;;4990851;27;88067;-67
2023/06/25 08:20:09;;;;;;;6.65;2.13;;;26.70;92.00;27.10;101100.00;;;;4988091;27;109771;-67
2023/06/25 08:22:34;;;;;;;4.20;2.25;;;26.70;91.70;27.30;101100.00;;;;4987304;27;99011;-67
2023/06/25 08:25:07;;;;;;;2.60;1.70;;;26.90;91.30;27.50;101096.00;;;;4990571;27;117294;-67
2023/06/25 08:27:33;;;;;;;2.53;2.28;;;27.10;90.80;27.70;101105.00;;;;4988357;27;88148;-67
2023/06/25 08:29:58;;;;;;;10.13;2.47;;;27.20;90.50;27.80;101099.00;;;;4993785;27;102648;-67
2023/06/25 08:32:24;;;;;;;2.05;1.85;;;27.40;90.20;28.00;101095.00;;;;4991416;27;108025;-67
2023/06/25 08:34:50;;;;;;;3.85;2.05;;;27.60;89.70;28.20;101101.00;;;;4992431;27;116199;-67
2023/06/25 08:37:15;;;;;;;6.90;1.98;;;27.80;88.80;28.30;101102.00;;;;4990679;27;87955;-67
2023/06/25 08:39:41;;;;;;;2.63;1.80;;;27.90;87.10;28.40;101105.00;;;;4988734;27;100120;-67
2023/06/25 08:42:07;;;;;;;4.03;2.70;;;28.00;85.60;28.50;101106.00;;;;4988709;27;109479;-68
2023/06/25 08:44:32;;;;;;;3.08;1.83;;;28.10;85.20;28.70;101108.00;;;;4971895;28;106700;-68
2023/06/25 08:46:58;;;;;;;4.20;2.17;;;28.20;84.60;28.80;101103.00;;;;4991088;27;117358;-67
2023/06/25 08:49:29;;;;;;;2.33;1.75;;;28.40;83.00;29.00;101109.00;;;;4987973;27;111923;-67
2023/06/25 08:51:56;;;;;;;2.15;1.77;;;28.50;82.20;29.10;101106.00;;;;4989125;27;87779;-67
2023/06/25 08:54:22;;;;;;;1.98;1.55;;;28.70;81.20;29.20;101105.00;;;;4976076;27;89157;-70
2023/06/25 08:56:48;;;;;;;3.20;1.85;;;28.80;80.30;29.40;101102.00;;;;4987987;27;116790;-70
2023/06/25 08:59:14;;;;;;;1.92;1.73;;;28.90;79.00;29.60;101094.00;;;;4992394;27;109635;-70
2023/06/25 09:01:40;;;;;;;2.95;1.75;;;29.10;78.30;29.80;101099.00;;;;4988172;27;87845;-70
2023/06/25 09:04:06;;;;;;;2.20;1.73;;;29.30;76.20;30.00;101108.00;;;;4990489;27;107550;-69
2023/06/25 09:06:39;;;;;;;2.05;1.45;;;29.50;74.80;30.10;101099.00;;;;4987071;27;117683;-70
2023/06/25 09:09:05;;;;;;;1.88;1.63;;;29.70;73.60;30.20;101091.00;;;;4988362;27;88703;-69
2023/06/25 09:11:31;;;;;;;3.67;1.88;;;29.80;70.80;30.30;101102.00;;;;4986628;27;100420;-70
2023/06/25 09:13:58;;;;;;;2.70;1.85;;;29.80;69.70;30.40;101090.00;;;;4975014;28;88399;-70
2023/06/25 09:16:25;;;;;;;1.65;1.55;;;29.90;68.00;30.40;101086.00;;;;4991547;27;89307;-69
2023/06/25 09:18:51;;;;;;;2.28;1.35;;;30.10;66.00;30.60;101090.00;;;;4986960;27;88020;-70
2023/06/25 09:21:16;;;;;;;3.78;1.80;;;30.20;64.30;30.80;101081.00;;;;4987313;28;108858;-70
2023/06/25 09:23:53;;;;;;;4.75;1.63;;;30.40;63.10;31.10;101078.00;;;;4989554;27;118301;-70
2023/06/25 09:26:18;;;;;;;1.63;1.48;;;30.60;61.60;31.30;101085.00;;;;4987080;27;88812;-70
2023/06/25 09:28:59;;;;;;;3.65;1.55;;;30.80;59.80;31.60;101081.00;;;;4987920;27;89180;-71
2023/06/25 09:31:25;;;;;;;2.72;1.35;;;31.10;59.00;31.70;101079.00;;;;4986383;27;88171;-70
2023/06/25 09:33:51;;;;;;;3.13;1.65;;;31.30;58.70;32.00;101079.00;;;;4986341;27;88228;-70
2023/06/25 09:36:17;;;;;;;3.15;1.67;;;31.50;58.20;32.20;101075.00;;;;4986212;27;88871;-70
2023/06/25 09:38:45;;;;;;;1.60;0.90;;;31.70;56.90;32.50;101076.00;;;;4985769;28;108097;-71
2023/06/25 09:41:15;;;;;;;3.97;2.60;;;31.80;55.80;32.60;101074.00;;;;4988609;27;88055;-71
2023/06/25 09:43:43;;;;;;;2.83;1.33;;;32.10;55.00;32.70;101068.00;;;;4973859;27;90066;-71
2023/06/25 09:46:11;;;;;;;3.85;1.60;;;32.20;53.50;32.60;101068.00;;;;4974025;28;87939;-71
2023/06/25 09:48:37;;;;;;;3.38;2.47;;;32.20;52.90;32.70;101080.00;;;;4984775;27;87803;-71
2023/06/25 09:51:06;;;;;;;2.50;1.63;;;32.30;53.40;32.80;101072.00;;;;4967456;28;108812;-71
2023/06/25 09:53:37;;;;;;;1.83;1.52;;;32.30;52.80;32.80;101068.00;;;;4969023;28;88958;-71
2023/06/25 09:56:06;;;;;;;1.33;1.05;;;32.40;52.10;32.90;101069.00;;;;4975561;28;88138;-71
2023/06/25 09:58:32;;;;;;;3.03;1.75;;;32.40;52.00;32.80;101068.00;;;;4987238;27;102921;-71
2023/06/25 10:00:58;;;;;;;3.67;1.85;;;32.40;50.90;32.70;101067.00;;;;4984696;27;108421;-71
2023/06/25 10:03:24;;;;;;;3.90;1.48;;;32.30;50.50;32.70;101065.00;;;;4990056;27;89786;-71
2023/06/25 10:05:51;;;;;;;5.35;2.65;;;32.30;50.70;32.90;101063.00;;;;4971670;27;117409;-71
2023/06/25 10:08:19;;;;;;;1.90;1.48;;;32.40;50.90;32.90;101059.00;;;;4988986;27;88430;-71
2023/06/25 10:10:57;;;;;;;4.75;1.58;;;32.50;49.50;32.90;101059.00;;;;4992821;27;88244;-71
2023/06/25 10:13:23;;;;;;;3.22;1.55;;;32.40;49.40;33.00;101064.00;;;;4966246;27;90161;-71
2023/06/25 10:16:01;;;;;;;3.22;1.10;;;32.40;50.00;33.30;101048.00;;;;4973424;27;88040;-71
2023/06/25 10:18:27;;;;;;;2.72;1.60;;;32.70;50.00;33.70;101049.00;;;;4965781;28;87903;-70
2023/06/25 10:20:58;;;;;;;1.98;1.38;;;33.00;49.40;34.00;101054.00;;;;4982743;27;108582;-71
2023/06/25 10:23:24;;;;;;;1.42;1.10;;;33.30;48.20;34.20;101052.00;;;;4955379;28;110827;-72
2023/06/25 10:25:56;;;;;;;5.28;1.67;;;33.50;47.40;34.40;101053.00;;;;4969355;27;88926;-71
2023/06/25 10:28:34;;;;;;;1.15;0.82;;;33.70;47.80;34.80;101046.00;;;;4965591;28;88109;-71
2023/06/25 10:31:13;;;;;;;0.95;0.88;;;34.00;48.00;34.90;101055.00;;;;4989355;27;87661;-71
2023/06/25 10:33:38;;;;;;;3.15;1.40;;;34.30;47.40;34.70;101054.00;;;;4973792;28;88213;-70
2023/06/25 10:36:08;;;;;;;0.88;0.82;;;34.20;46.80;34.40;101050.00;;;;4968805;27;117836;-70
2023/06/25 10:38:34;;;;;;;2.00;1.48;;;34.00;46.50;34.10;101052.00;;;;4990290;27;88101;-71
2023/06/25 10:41:00;;;;;;;1.85;1.10;;;33.70;46.90;33.90;101046.00;;;;4968686;27;87879;-71